sensor_id;sensor_type;location;lat;lon;timestamp;pressure;altitude;pressure_sealevel;temperature;humidity
46045;BME280;31781;54.094;13.428;2024-01-07T00:01:02;102270.09;;;1.30;64.33
46045;BME280;31781;54.094;13.428;2024-01-07T00:07:05;102271.59;;;1.34;65.52
46045;BME280;31781;54.094;13.428;2024-01-07T00:13:07;102265.25;;;1.35;65.54
46045;BME280;31781;54.094;13.428;2024-01-07T00:19:09;102263.31;;;1.37;65.10
46045;BME280;31781;54.094;13.428;2024-01-07T00:25:12;102259.66;;;1.38;65.24
46045;BME280;31781;54.094;13.428;2024-01-07T00:31:14;102267.59;;;1.39;65.54
46045;BME280;31781;54.094;13.428;2024-01-07T00:37:15;102272.97;;;1.39;65.37
46045;BME280;31781;54.094;13.428;2024-01-07T00:43:18;102271.88;;;1.42;64.84
46045;BME280;31781;54.094;13.428;2024-01-07T00:49:20;102272.75;;;1.42;64.96
46045;BME280;31781;54.094;13.428;2024-01-07T00:55:22;102270.91;;;1.43;65.48
46045;BME280;31781;54.094;13.428;2024-01-07T01:01:24;102270.06;;;1.42;65.88
46045;BME280;31781;54.094;13.428;2024-01-07T01:07:26;102282.59;;;1.42;65.85
46045;BME280;31781;54.094;13.428;2024-01-07T01:13:28;102284.56;;;1.40;65.95
46045;BME280;31781;54.094;13.428;2024-01-07T01:19:31;102280.25;;;1.37;65.95
46045;BME280;31781;54.094;13.428;2024-01-07T01:25:33;102278.44;;;1.38;66.42
46045;BME280;31781;54.094;13.428;2024-01-07T01:31:35;102275.41;;;1.42;66.41
46045;BME280;31781;54.094;13.428;2024-01-07T01:37:38;102281.41;;;1.46;66.38
46045;BME280;31781;54.094;13.428;2024-01-07T01:43:39;102287.31;;;1.51;67.11
46045;BME280;31781;54.094;13.428;2024-01-07T01:49:41;102289.75;;;1.54;66.25
46045;BME280;31781;54.094;13.428;2024-01-07T01:55:45;102300.25;;;1.57;65.75
46045;BME280;31781;54.094;13.428;2024-01-07T02:01:47;102303.66;;;1.59;66.24
46045;BME280;31781;54.094;13.428;2024-01-07T02:07:49;102304.44;;;1.61;66.45
46045;BME280;31781;54.094;13.428;2024-01-07T02:13:53;102305.16;;;1.63;66.24
46045;BME280;31781;54.094;13.428;2024-01-07T02:19:54;102305.91;;;1.65;65.65
46045;BME280;31781;54.094;13.428;2024-01-07T02:25:57;102309.47;;;1.66;65.73
46045;BME280;31781;54.094;13.428;2024-01-07T02:31:59;102307.41;;;1.69;65.33
46045;BME280;31781;54.094;13.428;2024-01-07T02:38:01;102304.72;;;1.69;64.84
46045;BME280;31781;54.094;13.428;2024-01-07T02:44:04;102309.00;;;1.72;64.84
46045;BME280;31781;54.094;13.428;2024-01-07T02:50:06;102313.50;;;1.71;64.09
46045;BME280;31781;54.094;13.428;2024-01-07T02:56:08;102317.91;;;1.72;64.67
46045;BME280;31781;54.094;13.428;2024-01-07T03:02:11;102334.00;;;1.72;63.84
46045;BME280;31781;54.094;13.428;2024-01-07T03:08:13;102328.00;;;1.69;63.59
46045;BME280;31781;54.094;13.428;2024-01-07T03:14:14;102332.41;;;1.70;64.17
46045;BME280;31781;54.094;13.428;2024-01-07T03:20:17;102324.38;;;1.70;63.93
46045;BME280;31781;54.094;13.428;2024-01-07T03:26:20;102337.78;;;1.70;63.38
46045;BME280;31781;54.094;13.428;2024-01-07T03:32:21;102345.81;;;1.70;63.60
46045;BME280;31781;54.094;13.428;2024-01-07T03:38:24;102346.88;;;1.67;63.23
46045;BME280;31781;54.094;13.428;2024-01-07T03:44:26;102350.34;;;1.69;63.20
46045;BME280;31781;54.094;13.428;2024-01-07T03:50:28;102356.66;;;1.68;62.16
46045;BME280;31781;54.094;13.428;2024-01-07T03:56:31;102363.75;;;1.69;62.87
46045;BME280;31781;54.094;13.428;2024-01-07T04:02:33;102369.97;;;1.70;63.17
46045;BME280;31781;54.094;13.428;2024-01-07T04:08:35;102370.94;;;1.69;62.76
46045;BME280;31781;54.094;13.428;2024-01-07T04:14:38;102379.94;;;1.68;61.85
46045;BME280;31781;54.094;13.428;2024-01-07T04:20:39;102388.75;;;1.70;61.98
46045;BME280;31781;54.094;13.428;2024-01-07T04:26:41;102390.44;;;1.71;61.98
46045;BME280;31781;54.094;13.428;2024-01-07T04:32:44;102388.63;;;1.71;62.76
46045;BME280;31781;54.094;13.428;2024-01-07T04:38:45;102394.13;;;1.70;61.14
46045;BME280;31781;54.094;13.428;2024-01-07T04:44:47;102401.41;;;1.68;61.99
46045;BME280;31781;54.094;13.428;2024-01-07T04:50:50;102404.00;;;1.69;62.46
46045;BME280;31781;54.094;13.428;2024-01-07T04:56:52;102413.00;;;1.68;61.91
46045;BME280;31781;54.094;13.428;2024-01-07T05:02:53;102399.59;;;1.68;62.06
46045;BME280;31781;54.094;13.428;2024-01-07T05:08:56;102401.41;;;1.68;62.54
46045;BME280;31781;54.094;13.428;2024-01-07T05:14:58;102410.22;;;1.70;64.33
46045;BME280;31781;54.094;13.428;2024-01-07T05:20:59;102406.69;;;1.69;65.53
46045;BME280;31781;54.094;13.428;2024-01-07T05:27:02;102411.06;;;1.70;64.47
46045;BME280;31781;54.094;13.428;2024-01-07T05:33:04;102413.72;;;1.70;64.25
46045;BME280;31781;54.094;13.428;2024-01-07T05:39:06;102429.84;;;1.70;63.75
46045;BME280;31781;54.094;13.428;2024-01-07T05:45:09;102431.78;;;1.68;64.83
46045;BME280;31781;54.094;13.428;2024-01-07T05:51:11;102430.81;;;1.69;64.29
46045;BME280;31781;54.094;13.428;2024-01-07T05:57:13;102434.47;;;1.68;65.31
46045;BME280;31781;54.094;13.428;2024-01-07T06:03:16;102432.75;;;1.67;64.87
46045;BME280;31781;54.094;13.428;2024-01-07T06:09:18;102442.63;;;1.67;64.54
46045;BME280;31781;54.094;13.428;2024-01-07T06:15:19;102456.16;;;1.65;65.01
46045;BME280;31781;54.094;13.428;2024-01-07T06:21:22;102465.16;;;1.64;64.35
46045;BME280;31781;54.094;13.428;2024-01-07T06:27:24;102465.38;;;1.61;63.56
46045;BME280;31781;54.094;13.428;2024-01-07T06:33:26;102475.34;;;1.59;63.40
46045;BME280;31781;54.094;13.428;2024-01-07T06:39:29;102479.13;;;1.57;64.19
46045;BME280;31781;54.094;13.428;2024-01-07T06:45:31;102477.53;;;1.54;63.67
46045;BME280;31781;54.094;13.428;2024-01-07T06:51:33;102489.31;;;1.52;63.83
46045;BME280;31781;54.094;13.428;2024-01-07T06:57:36;102491.25;;;1.50;63.42
46045;BME280;31781;54.094;13.428;2024-01-07T07:03:40;102510.13;;;1.48;63.19
46045;BME280;31781;54.094;13.428;2024-01-07T07:09:42;102526.34;;;1.46;62.33
46045;BME280;31781;54.094;13.428;2024-01-07T07:15:45;102533.53;;;1.46;62.57
46045;BME280;31781;54.094;13.428;2024-01-07T07:21:47;102539.09;;;1.43;63.04
46045;BME280;31781;54.094;13.428;2024-01-07T07:27:48;102540.06;;;1.42;63.62
46045;BME280;31781;54.094;13.428;2024-01-07T07:33:51;102551.88;;;1.39;62.48
46045;BME280;31781;54.094;13.428;2024-01-07T07:39:53;102547.47;;;1.38;62.67
46045;BME280;31781;54.094;13.428;2024-01-07T07:45:55;102569.78;;;1.39;63.13
46045;BME280;31781;54.094;13.428;2024-01-07T07:51:57;102571.59;;;1.38;63.15
46045;BME280;31781;54.094;13.428;2024-01-07T07:57:59;102582.44;;;1.37;62.49
46045;BME280;31781;54.094;13.428;2024-01-07T08:04:01;102590.59;;;1.35;62.42
46045;BME280;31781;54.094;13.428;2024-01-07T08:10:05;102588.88;;;1.34;62.49
46045;BME280;31781;54.094;13.428;2024-01-07T08:16:07;102595.19;;;1.33;62.19
46045;BME280;31781;54.094;13.428;2024-01-07T08:22:09;102603.22;;;1.33;61.97
46045;BME280;31781;54.094;13.428;2024-01-07T08:28:12;102599.81;;;1.31;61.15
46045;BME280;31781;54.094;13.428;2024-01-07T08:34:14;102600.66;;;1.32;61.31
46045;BME280;31781;54.094;13.428;2024-01-07T08:40:16;102597.13;;;1.31;61.89
46045;BME280;31781;54.094;13.428;2024-01-07T08:46:21;102595.41;;;1.30;61.91
46045;BME280;31781;54.094;13.428;2024-01-07T08:52:23;102607.13;;;1.29;61.63
46045;BME280;31781;54.094;13.428;2024-01-07T08:58:25;102603.56;;;1.29;60.78
46045;BME280;31781;54.094;13.428;2024-01-07T09:04:28;102619.53;;;1.30;61.21
46045;BME280;31781;54.094;13.428;2024-01-07T09:10:30;102618.66;;;1.30;61.49
46045;BME280;31781;54.094;13.428;2024-01-07T09:16:31;102615.91;;;1.31;61.54
46045;BME280;31781;54.094;13.428;2024-01-07T09:22:35;102609.59;;;1.32;62.13
46045;BME280;31781;54.094;13.428;2024-01-07T09:28:36;102617.41;;;1.35;61.66
46045;BME280;31781;54.094;13.428;2024-01-07T09:34:38;102619.13;;;1.36;62.60
46045;BME280;31781;54.094;13.428;2024-01-07T09:40:41;102625.25;;;1.38;62.32
46045;BME280;31781;54.094;13.428;2024-01-07T09:46:44;102625.16;;;1.40;61.82
46045;BME280;31781;54.094;13.428;2024-01-07T09:52:48;102626.75;;;1.42;61.12
46045;BME280;31781;54.094;13.428;2024-01-07T09:58:51;102621.19;;;1.45;60.94
46045;BME280;31781;54.094;13.428;2024-01-07T10:04:53;102622.69;;;1.50;61.90
46045;BME280;31781;54.094;13.428;2024-01-07T10:10:55;102618.06;;;1.52;64.38
46045;BME280;31781;54.094;13.428;2024-01-07T10:16:58;102617.97;;;1.53;65.11
46045;BME280;31781;54.094;13.428;2024-01-07T10:23:00;102623.25;;;1.55;66.56
46045;BME280;31781;54.094;13.428;2024-01-07T10:29:02;102615.38;;;1.52;67.01
46045;BME280;31781;54.094;13.428;2024-01-07T10:35:05;102626.88;;;1.54;68.10
46045;BME280;31781;54.094;13.428;2024-01-07T10:41:09;102612.50;;;1.55;67.92
46045;BME280;31781;54.094;13.428;2024-01-07T10:47:13;102600.78;;;1.56;68.32
46045;BME280;31781;54.094;13.428;2024-01-07T10:53:21;102613.38;;;1.55;68.26
46045;BME280;31781;54.094;13.428;2024-01-07T10:59:23;102611.53;;;1.56;68.44
46045;BME280;31781;54.094;13.428;2024-01-07T11:05:31;102620.56;;;1.55;68.85
46045;BME280;31781;54.094;13.428;2024-01-07T11:11:37;102605.44;;;1.54;68.90
46045;BME280;31781;54.094;13.428;2024-01-07T11:17:41;102601.66;;;1.56;69.56
46045;BME280;31781;54.094;13.428;2024-01-07T11:23:43;102597.72;;;1.62;68.96
46045;BME280;31781;54.094;13.428;2024-01-07T11:29:54;102599.88;;;1.69;69.17
46045;BME280;31781;54.094;13.428;2024-01-07T11:35:56;102609.50;;;1.72;69.17
46045;BME280;31781;54.094;13.428;2024-01-07T11:41:58;102604.88;;;1.74;69.37
46045;BME280;31781;54.094;13.428;2024-01-07T11:48:01;102605.75;;;1.74;68.16
46045;BME280;31781;54.094;13.428;2024-01-07T11:54:04;102597.91;;;1.71;68.31
46045;BME280;31781;54.094;13.428;2024-01-07T12:00:07;102595.38;;;1.70;68.88
46045;BME280;31781;54.094;13.428;2024-01-07T12:06:10;102585.03;;;1.64;68.56
46045;BME280;31781;54.094;13.428;2024-01-07T12:12:12;102588.59;;;1.64;68.88
46045;BME280;31781;54.094;13.428;2024-01-07T12:18:14;102590.72;;;1.59;68.86
46045;BME280;31781;54.094;13.428;2024-01-07T12:24:18;102587.28;;;1.57;68.58
46045;BME280;31781;54.094;13.428;2024-01-07T12:30:20;102584.81;;;1.54;69.06
46045;BME280;31781;54.094;13.428;2024-01-07T12:36:22;102585.88;;;1.52;69.81
46045;BME280;31781;54.094;13.428;2024-01-07T12:42:26;102581.50;;;1.51;69.28
46045;BME280;31781;54.094;13.428;2024-01-07T12:48:27;102579.69;;;1.51;69.02
46045;BME280;31781;54.094;13.428;2024-01-07T12:54:29;102585.03;;;1.51;69.31
46045;BME280;31781;54.094;13.428;2024-01-07T13:00:32;102572.38;;;1.53;69.98
46045;BME280;31781;54.094;13.428;2024-01-07T13:06:33;102585.56;;;1.56;69.71
46045;BME280;31781;54.094;13.428;2024-01-07T13:12:35;102580.84;;;1.60;70.03
46045;BME280;31781;54.094;13.428;2024-01-07T13:18:50;102581.84;;;1.59;70.23
46045;BME280;31781;54.094;13.428;2024-01-07T13:24:52;102575.69;;;1.57;69.60
46045;BME280;31781;54.094;13.428;2024-01-07T13:30:53;102581.19;;;1.55;70.26
46045;BME280;31781;54.094;13.428;2024-01-07T13:36:56;102586.66;;;1.54;70.58
46045;BME280;31781;54.094;13.428;2024-01-07T13:42:58;102595.66;;;1.53;70.58
46045;BME280;31781;54.094;13.428;2024-01-07T13:49:00;102587.81;;;1.50;71.73
46045;BME280;31781;54.094;13.428;2024-01-07T13:55:04;102598.63;;;1.48;71.26
46045;BME280;31781;54.094;13.428;2024-01-07T14:01:06;102597.03;;;1.45;71.95
46045;BME280;31781;54.094;13.428;2024-01-07T14:07:07;102583.94;;;1.41;71.93
46045;BME280;31781;54.094;13.428;2024-01-07T14:13:10;102601.19;;;1.37;72.10
46045;BME280;31781;54.094;13.428;2024-01-07T14:19:12;102603.34;;;1.32;70.69
46045;BME280;31781;54.094;13.428;2024-01-07T14:25:14;102608.28;;;1.25;70.44
46045;BME280;31781;54.094;13.428;2024-01-07T14:31:17;102619.31;;;1.21;70.49
46045;BME280;31781;54.094;13.428;2024-01-07T14:37:19;102624.88;;;1.18;70.68
46045;BME280;31781;54.094;13.428;2024-01-07T14:43:21;102644.69;;;1.15;70.82
46045;BME280;31781;54.094;13.428;2024-01-07T14:49:24;102651.03;;;1.14;70.44
46045;BME280;31781;54.094;13.428;2024-01-07T14:55:25;102666.34;;;1.12;70.20
46045;BME280;31781;54.094;13.428;2024-01-07T15:01:27;102681.69;;;1.10;70.72
46045;BME280;31781;54.094;13.428;2024-01-07T15:07:30;102694.22;;;1.10;70.81
46045;BME280;31781;54.094;13.428;2024-01-07T15:13:32;102706.84;;;1.08;71.28
46045;BME280;31781;54.094;13.428;2024-01-07T15:19:34;102716.16;;;1.02;72.11
46045;BME280;31781;54.094;13.428;2024-01-07T15:25:37;102721.72;;;0.99;72.49
46045;BME280;31781;54.094;13.428;2024-01-07T15:31:39;102722.03;;;0.94;72.02
46045;BME280;31781;54.094;13.428;2024-01-07T15:37:41;102731.00;;;0.93;72.21
46045;BME280;31781;54.094;13.428;2024-01-07T15:43:44;102734.75;;;0.91;71.29
46045;BME280;31781;54.094;13.428;2024-01-07T15:49:45;102742.13;;;0.87;71.47
46045;BME280;31781;54.094;13.428;2024-01-07T15:55:47;102743.94;;;0.87;70.29
46045;BME280;31781;54.094;13.428;2024-01-07T16:01:50;102748.44;;;0.86;68.76
46045;BME280;31781;54.094;13.428;2024-01-07T16:07:52;102759.94;;;0.88;67.20
46045;BME280;31781;54.094;13.428;2024-01-07T16:13:53;102774.16;;;0.89;66.65
46045;BME280;31781;54.094;13.428;2024-01-07T16:19:56;102779.44;;;0.90;67.01
46045;BME280;31781;54.094;13.428;2024-01-07T16:25:58;102785.69;;;0.91;66.46
46045;BME280;31781;54.094;13.428;2024-01-07T16:32:00;102777.72;;;0.89;65.45
46045;BME280;31781;54.094;13.428;2024-01-07T16:38:03;102788.56;;;0.88;65.64
46045;BME280;31781;54.094;13.428;2024-01-07T16:44:04;102805.59;;;0.87;66.14
46045;BME280;31781;54.094;13.428;2024-01-07T16:50:06;102813.69;;;0.85;65.44
46045;BME280;31781;54.094;13.428;2024-01-07T16:56:12;102820.13;;;0.83;65.81
46045;BME280;31781;54.094;13.428;2024-01-07T17:02:14;102834.59;;;0.80;64.85
46045;BME280;31781;54.094;13.428;2024-01-07T17:08:16;102838.28;;;0.78;64.66
46045;BME280;31781;54.094;13.428;2024-01-07T17:14:19;102851.03;;;0.74;64.72
46045;BME280;31781;54.094;13.428;2024-01-07T17:20:20;102851.31;;;0.70;63.82
46045;BME280;31781;54.094;13.428;2024-01-07T17:26:22;102854.94;;;0.69;64.23
46045;BME280;31781;54.094;13.428;2024-01-07T17:32:25;102867.56;;;0.67;63.90
46045;BME280;31781;54.094;13.428;2024-01-07T17:38:27;102870.44;;;0.64;62.55
46045;BME280;31781;54.094;13.428;2024-01-07T17:44:29;102877.78;;;0.60;62.85
46045;BME280;31781;54.094;13.428;2024-01-07T17:50:33;102885.25;;;0.55;62.94
46045;BME280;31781;54.094;13.428;2024-01-07T17:56:34;102895.97;;;0.55;63.18
46045;BME280;31781;54.094;13.428;2024-01-07T18:02:36;102908.69;;;0.52;63.34
46045;BME280;31781;54.094;13.428;2024-01-07T18:08:39;102915.06;;;0.49;63.86
46045;BME280;31781;54.094;13.428;2024-01-07T18:14:52;102917.88;;;0.47;63.31
46045;BME280;31781;54.094;13.428;2024-01-07T18:20:56;102919.75;;;0.45;64.00
46045;BME280;31781;54.094;13.428;2024-01-07T18:26:58;102924.25;;;0.45;63.84
46045;BME280;31781;54.094;13.428;2024-01-07T18:33:00;102932.38;;;0.43;63.09
46045;BME280;31781;54.094;13.428;2024-01-07T18:39:02;102924.34;;;0.43;62.96
46045;BME280;31781;54.094;13.428;2024-01-07T18:45:06;102940.41;;;0.43;62.83
46045;BME280;31781;54.094;13.428;2024-01-07T18:51:08;102945.78;;;0.43;61.92
46045;BME280;31781;54.094;13.428;2024-01-07T18:57:10;102934.28;;;0.41;62.87
46045;BME280;31781;54.094;13.428;2024-01-07T19:03:13;102955.63;;;0.43;62.94
46045;BME280;31781;54.094;13.428;2024-01-07T19:09:15;102957.44;;;0.42;62.44
46045;BME280;31781;54.094;13.428;2024-01-07T19:15:16;102962.78;;;0.42;62.16
46045;BME280;31781;54.094;13.428;2024-01-07T19:21:19;102967.28;;;0.42;62.20
46045;BME280;31781;54.094;13.428;2024-01-07T19:27:21;102970.81;;;0.42;62.52
46045;BME280;31781;54.094;13.428;2024-01-07T19:33:22;102969.88;;;0.43;63.50
46045;BME280;31781;54.094;13.428;2024-01-07T19:39:25;102979.72;;;0.43;63.96
46045;BME280;31781;54.094;13.428;2024-01-07T19:45:27;102982.28;;;0.44;64.54
46045;BME280;31781;54.094;13.428;2024-01-07T19:51:29;102987.75;;;0.43;63.61
46045;BME280;31781;54.094;13.428;2024-01-07T19:57:32;102995.78;;;0.43;61.64
46045;BME280;31781;54.094;13.428;2024-01-07T20:03:35;102985.94;;;0.43;62.38
46045;BME280;31781;54.094;13.428;2024-01-07T20:09:36;102993.88;;;0.45;62.45
46045;BME280;31781;54.094;13.428;2024-01-07T20:15:39;103001.81;;;0.46;61.96
46045;BME280;31781;54.094;13.428;2024-01-07T20:21:42;103014.44;;;0.44;62.81
46045;BME280;31781;54.094;13.428;2024-01-07T20:27:43;103017.09;;;0.44;62.81
46045;BME280;31781;54.094;13.428;2024-01-07T20:33:46;103013.47;;;0.45;63.29
46045;BME280;31781;54.094;13.428;2024-01-07T20:39:48;103001.81;;;0.46;64.62
46045;BME280;31781;54.094;13.428;2024-01-07T20:45:50;103009.84;;;0.46;64.67
46045;BME280;31781;54.094;13.428;2024-01-07T20:51:53;103010.63;;;0.48;66.06
46045;BME280;31781;54.094;13.428;2024-01-07T20:57:54;103015.91;;;0.50;65.30
46045;BME280;31781;54.094;13.428;2024-01-07T21:03:56;103019.44;;;0.51;65.34
46045;BME280;31781;54.094;13.428;2024-01-07T21:10:04;103012.16;;;0.53;64.76
46045;BME280;31781;54.094;13.428;2024-01-07T21:16:05;103015.72;;;0.53;64.94
46045;BME280;31781;54.094;13.428;2024-01-07T21:22:08;103033.59;;;0.53;65.58
46045;BME280;31781;54.094;13.428;2024-01-07T21:28:13;103047.28;;;0.48;65.78
46045;BME280;31781;54.094;13.428;2024-01-07T21:34:15;103052.03;;;0.43;65.22
46045;BME280;31781;54.094;13.428;2024-01-07T21:40:17;103047.03;;;0.37;65.96
46045;BME280;31781;54.094;13.428;2024-01-07T21:46:20;103063.16;;;0.35;65.42
46045;BME280;31781;54.094;13.428;2024-01-07T21:52:22;103066.03;;;0.32;66.68
46045;BME280;31781;54.094;13.428;2024-01-07T21:58:23;103074.13;;;0.31;66.41
46045;BME280;31781;54.094;13.428;2024-01-07T22:04:26;103084.06;;;0.29;65.66
46045;BME280;31781;54.094;13.428;2024-01-07T22:10:28;103105.06;;;0.21;66.05
46045;BME280;31781;54.094;13.428;2024-01-07T22:16:30;103109.97;;;0.13;66.10
46045;BME280;31781;54.094;13.428;2024-01-07T22:22:33;103106.94;;;0.03;66.56
46045;BME280;31781;54.094;13.428;2024-01-07T22:28:34;103108.91;;;-0.01;65.87
46045;BME280;31781;54.094;13.428;2024-01-07T22:34:36;103122.59;;;-0.07;66.49
46045;BME280;31781;54.094;13.428;2024-01-07T22:40:39;103118.47;;;-0.12;66.71
46045;BME280;31781;54.094;13.428;2024-01-07T22:46:43;103117.94;;;-0.19;66.76
46045;BME280;31781;54.094;13.428;2024-01-07T22:52:45;103121.72;;;-0.23;66.18
46045;BME280;31781;54.094;13.428;2024-01-07T22:58:48;103138.69;;;-0.24;66.66
46045;BME280;31781;54.094;13.428;2024-01-07T23:04:50;103131.63;;;-0.25;67.14
46045;BME280;31781;54.094;13.428;2024-01-07T23:10:52;103137.06;;;-0.26;67.10
46045;BME280;31781;54.094;13.428;2024-01-07T23:16:55;103144.81;;;-0.22;67.69
46045;BME280;31781;54.094;13.428;2024-01-07T23:22:56;103152.78;;;-0.20;66.71
46045;BME280;31781;54.094;13.428;2024-01-07T23:28:58;103158.19;;;-0.22;66.94
46045;BME280;31781;54.094;13.428;2024-01-07T23:35:02;103167.97;;;-0.21;67.79
46045;BME280;31781;54.094;13.428;2024-01-07T23:41:04;103174.13;;;-0.19;67.71
46045;BME280;31781;54.094;13.428;2024-01-07T23:47:07;103171.50;;;-0.20;67.65
46045;BME280;31781;54.094;13.428;2024-01-07T23:53:10;103178.50;;;-0.18;67.45
46045;BME280;31781;54.094;13.428;2024-01-07T23:59:12;103194.56;;;-0.18;67.94
